Time;durP1;ratioP1;P1;durP2;ratioP2;P2;SDS_P1;SDS_P2;PMS_P1;PMS_P2;Temp;Humidity;BMP_temperature;BMP_pressure;BME280_temperature;BME280_humidity;BME280_pressure;Samples;Min_cycle;Max_cycle;Signal;HPM_P1;HPM_P2
2022/10/21 00:02:49;;;;;;;26.58;11.30;;;;;;;;;;6094365;23;20030;-87
2022/10/21 00:05:20;;;;;;;25.38;11.70;;;;;;;;;;6093075;23;20359;-87
2022/10/21 00:07:51;;;;;;;35.45;12.38;;;;;;;;;;6093061;23;20034;-87
2022/10/21 00:10:26;;;;;;;28.42;11.98;;;;;;;;;;6070494;23;20783;-84
2022/10/21 00:12:57;;;;;;;31.00;11.57;;;;;;;;;;6069811;23;20027;-85
2022/10/21 00:15:28;;;;;;;32.67;12.75;;;;;;;;;;6094680;23;20819;-85
2022/10/21 00:18:00;;;;;;;32.20;11.97;;;;;;;;;;6092170;23;20105;-86
2022/10/21 00:20:27;;;;;;;35.85;11.45;;;;;;;;;;6095845;23;20030;-85
2022/10/21 00:23:07;;;;;;;35.83;11.07;;;;;;;;;;6093060;23;20083;-86
2022/10/21 00:25:38;;;;;;;40.40;12.52;;;;;;;;;;6068918;23;20057;-85
2022/10/21 00:28:18;;;;;;;34.42;12.30;;;;;;;;;;6069994;23;20026;-86
2022/10/21 00:30:59;;;;;;;27.13;11.85;;;;;;;;;;6031274;23;20119;-87
2022/10/21 00:33:46;;;;;;;33.50;11.85;;;;;;;;;;6034512;23;20120;-85
2022/10/21 00:36:20;;;;;;;24.17;12.30;;;;;;;;;;6032336;23;20031;-85
2022/10/21 00:38:51;;;;;;;41.38;13.07;;;;;;;;;;6032607;23;20055;-85
2022/10/21 00:41:38;;;;;;;30.60;11.70;;;;;;;;;;6031270;23;20040;-85
2022/10/21 00:44:13;;;;;;;28.75;11.65;;;;;;;;;;6032563;23;20457;-85
2022/10/21 00:47:01;;;;;;;31.58;12.10;;;;;;;;;;6031760;23;20088;-86
2022/10/21 00:49:44;;;;;;;35.53;11.70;;;;;;;;;;6028582;23;20092;-85
2022/10/21 00:52:26;;;;;;;33.60;12.63;;;;;;;;;;6032232;23;20646;-86
2022/10/21 00:55:13;;;;;;;28.55;10.73;;;;;;;;;;5974411;23;20289;-86
2022/10/21 00:57:45;;;;;;;30.80;11.10;;;;;;;;;;6023766;23;20028;-87
2022/10/21 01:00:19;;;;;;;19.25;9.85;;;;;;;;;;6031109;23;20460;-87
2022/10/21 01:02:52;;;;;;;25.95;10.90;;;;;;;;;;6085926;23;20055;-85
2022/10/21 01:05:26;;;;;;;30.60;11.40;;;;;;;;;;6095223;23;20031;-86
2022/10/21 01:07:55;;;;;;;38.13;12.60;;;;;;;;;;6091410;23;20082;-88
2022/10/21 01:10:25;;;;;;;35.03;11.27;;;;;;;;;;6094585;23;20078;-87
2022/10/21 01:12:53;;;;;;;31.08;11.27;;;;;;;;;;6092311;23;20034;-87
2022/10/21 01:15:42;;;;;;;34.15;12.20;;;;;;;;;;6094611;23;20031;-87
2022/10/21 01:18:24;;;;;;;39.22;11.45;;;;;;;;;;6094515;23;20090;-87
2022/10/21 01:20:56;;;;;;;157.35;18.02;;;;;;;;;;6094566;23;20061;-87
2022/10/21 01:23:46;;;;;;;61.30;12.93;;;;;;;;;;6092799;23;20106;-87
2022/10/21 01:26:31;;;;;;;36.97;10.55;;;;;;;;;;6093108;23;20018;-86
2022/10/21 01:29:22;;;;;;;30.60;11.20;;;;;;;;;;6095064;23;20560;-87
2022/10/21 01:32:42;;;;;;;30.13;11.98;;;;;;;;;;6079661;23;20877;-87
2022/10/21 01:35:12;;;;;;;39.22;12.57;;;;;;;;;;6095320;23;20039;-85
2022/10/21 01:37:46;;;;;;;34.22;11.40;;;;;;;;;;6094702;23;20027;-85
2022/10/21 01:40:36;;;;;;;34.22;11.73;;;;;;;;;;6095680;23;20019;-86
2022/10/21 01:43:13;;;;;;;39.05;12.45;;;;;;;;;;6094404;23;20038;-86
2022/10/21 01:45:52;;;;;;;37.75;12.32;;;;;;;;;;6093377;23;20038;-85
2022/10/21 01:48:48;;;;;;;33.03;11.73;;;;;;;;;;6068716;23;20560;-86
2022/10/21 01:51:18;;;;;;;33.22;11.70;;;;;;;;;;6095820;23;20062;-85
2022/10/21 01:53:57;;;;;;;25.05;11.30;;;;;;;;;;6094542;23;20259;-85
2022/10/21 01:56:44;;;;;;;30.27;11.63;;;;;;;;;;5948437;24;20032;-86
2022/10/21 01:59:31;;;;;;;37.83;12.88;;;;;;;;;;5949704;24;20033;-88
2022/10/21 02:02:08;;;;;;;29.33;11.35;;;;;;;;;;5948794;24;20040;-86
2022/10/21 02:04:44;;;;;;;32.38;11.93;;;;;;;;;;5947678;24;20025;-85
2022/10/21 02:07:47;;;;;;;38.10;12.35;;;;;;;;;;5949021;24;20519;-86
2022/10/21 02:10:26;;;;;;;52.60;12.05;;;;;;;;;;5931342;24;20167;-85
2022/10/21 02:13:20;;;;;;;31.83;12.25;;;;;;;;;;5930704;24;20441;-87
2022/10/21 02:16:09;;;;;;;34.10;11.93;;;;;;;;;;5945823;24;20137;-85
2022/10/21 02:18:58;;;;;;;168.50;17.95;;;;;;;;;;5946972;24;20073;-86
2022/10/21 02:21:33;;;;;;;111.05;13.43;;;;;;;;;;5948355;24;21055;-85
2022/10/21 02:24:07;;;;;;;257.88;20.30;;;;;;;;;;5949070;24;20026;-85
2022/10/21 02:26:38;;;;;;;280.10;22.33;;;;;;;;;;5919132;24;20026;-85
2022/10/21 02:29:09;;;;;;;33.75;9.90;;;;;;;;;;5922466;24;20024;-86
2022/10/21 02:32:04;;;;;;;94.57;12.55;;;;;;;;;;5919498;24;20078;-87
2022/10/21 02:34:44;;;;;;;140.00;15.05;;;;;;;;;;5908586;24;20087;-86
2022/10/21 02:37:24;;;;;;;33.50;10.23;;;;;;;;;;5917751;24;20017;-87
2022/10/21 02:40:15;;;;;;;59.88;11.55;;;;;;;;;;5960067;23;20031;-86
2022/10/21 02:42:50;;;;;;;112.35;12.82;;;;;;;;;;6063019;23;20086;-85
2022/10/21 02:45:30;;;;;;;141.30;13.18;;;;;;;;;;6059685;23;20027;-85
2022/10/21 02:48:01;;;;;;;34.25;8.27;;;;;;;;;;6063879;23;20030;-86
2022/10/21 02:50:29;;;;;;;81.47;10.70;;;;;;;;;;6062492;23;20472;-87
2022/10/21 02:53:00;;;;;;;135.68;12.93;;;;;;;;;;6064665;23;20087;-85
2022/10/21 02:55:39;;;;;;;189.90;16.98;;;;;;;;;;6065790;23;20039;-85
2022/10/21 02:58:13;;;;;;;291.05;20.33;;;;;;;;;;6066547;23;20031;-85
2022/10/21 03:00:44;;;;;;;23.17;8.75;;;;;;;;;;6063585;23;20114;-86
2022/10/21 03:03:17;;;;;;;37.40;9.43;;;;;;;;;;6039946;23;20051;-86
2022/10/21 03:05:49;;;;;;;76.22;10.80;;;;;;;;;;6065659;23;20482;-85
2022/10/21 03:08:33;;;;;;;41.55;10.13;;;;;;;;;;6066210;23;20027;-87
2022/10/21 03:11:04;;;;;;;28.00;11.10;;;;;;;;;;6066336;23;20079;-85
2022/10/21 03:13:35;;;;;;;34.43;8.70;;;;;;;;;;6064800;23;20023;-85
2022/10/21 03:16:10;;;;;;;22.65;9.80;;;;;;;;;;6063718;23;20059;-87
2022/10/21 03:18:52;;;;;;;83.07;10.60;;;;;;;;;;6054622;23;20033;-85
2022/10/21 03:21:30;;;;;;;28.55;8.30;;;;;;;;;;6064588;23;20679;-86
2022/10/21 03:24:10;;;;;;;103.32;12.13;;;;;;;;;;6063638;23;20083;-86
2022/10/21 03:26:56;;;;;;;38.17;8.65;;;;;;;;;;6095031;23;20772;-85
2022/10/21 03:29:40;;;;;;;80.97;10.20;;;;;;;;;;6063565;23;20035;-85
2022/10/21 03:32:14;;;;;;;154.57;13.48;;;;;;;;;;6059138;23;20038;-88
2022/10/21 03:34:46;;;;;;;26.42;7.25;;;;;;;;;;6093300;23;20027;-85
2022/10/21 03:37:18;;;;;;;20.40;7.75;;;;;;;;;;6094734;23;20079;-86
2022/10/21 03:40:01;;;;;;;22.08;8.82;;;;;;;;;;6095028;23;20023;-85
2022/10/21 03:42:52;;;;;;;69.53;10.15;;;;;;;;;;6094864;23;20042;-85
2022/10/21 03:45:30;;;;;;;28.25;8.05;;;;;;;;;;6095327;23;20026;-85
2022/10/21 03:48:23;;;;;;;23.25;8.50;;;;;;;;;;6071016;23;20455;-85
2022/10/21 03:50:55;;;;;;;54.15;9.63;;;;;;;;;;6094699;23;20022;-85
2022/10/21 03:53:32;;;;;;;40.65;8.40;;;;;;;;;;6092658;23;20475;-85
2022/10/21 03:56:11;;;;;;;19.67;7.82;;;;;;;;;;6092912;23;20086;-86
2022/10/21 03:58:48;;;;;;;23.42;7.07;;;;;;;;;;6092349;23;20025;-85
2022/10/21 04:01:35;;;;;;;37.05;8.20;;;;;;;;;;6095978;23;20079;-88
2022/10/21 04:04:16;;;;;;;21.50;7.43;;;;;;;;;;6093282;23;20035;-85
2022/10/21 04:06:49;;;;;;;59.50;8.23;;;;;;;;;;6095795;23;20030;-85
2022/10/21 04:09:47;;;;;;;42.60;8.68;;;;;;;;;;6092907;23;20395;-85
2022/10/21 04:12:16;;;;;;;31.70;8.50;;;;;;;;;;6094145;23;20034;-88
2022/10/21 04:14:48;;;;;;;67.47;9.63;;;;;;;;;;6094757;23;20097;-85
2022/10/21 04:17:25;;;;;;;66.15;10.20;;;;;;;;;;6093939;23;20484;-88
2022/10/21 04:20:04;;;;;;;67.90;9.48;;;;;;;;;;6093016;23;20034;-84
2022/10/21 04:22:37;;;;;;;38.35;7.93;;;;;;;;;;6093574;23;20034;-88
2022/10/21 04:25:11;;;;;;;89.53;10.63;;;;;;;;;;6093689;23;20035;-86
2022/10/21 04:27:41;;;;;;;31.30;6.90;;;;;;;;;;6092279;23;20023;-86
2022/10/21 04:30:11;;;;;;;42.05;7.55;;;;;;;;;;6093807;23;20102;-87
2022/10/21 04:32:49;;;;;;;92.35;9.23;;;;;;;;;;6095643;23;20110;-87
2022/10/21 04:35:26;;;;;;;135.55;10.23;;;;;;;;;;6095254;23;20038;-87
2022/10/21 04:37:56;;;;;;;35.22;7.43;;;;;;;;;;6095186;23;20062;-87
2022/10/21 04:40:27;;;;;;;24.65;6.90;;;;;;;;;;6090631;23;20718;-87
2022/10/21 04:43:26;;;;;;;27.85;6.82;;;;;;;;;;6080581;23;20031;-87
2022/10/21 04:45:58;;;;;;;25.02;7.18;;;;;;;;;;6092248;23;20062;-87
2022/10/21 04:48:30;;;;;;;24.25;8.30;;;;;;;;;;6067056;23;20043;-86
2022/10/21 04:51:05;;;;;;;31.70;7.82;;;;;;;;;;6095164;23;20042;-86
2022/10/21 04:57:12;;;;;;;28.52;8.52;;;;;;;;;;6003375;23;20032;-87
2022/10/21 05:00:07;;;;;;;61.25;11.38;;;;;;;;;;6003132;23;20028;-86
2022/10/21 05:06:23;;;;;;;28.92;9.48;;;;;;;;;;6024590;23;20038;-87
2022/10/21 05:12:41;;;;;;;27.38;8.95;;;;;;;;;;6056108;23;20037;-87
2022/10/21 05:15:32;;;;;;;26.00;8.90;;;;;;;;;;6036884;23;20204;-87
2022/10/21 05:21:03;;;;;;;44.30;10.90;;;;;;;;;;6059968;23;20049;-87
2022/10/21 05:23:31;;;;;;;26.42;8.85;;;;;;;;;;6059771;23;20031;-87
2022/10/21 05:26:13;;;;;;;38.63;10.02;;;;;;;;;;6021181;23;20442;-87
2022/10/21 05:29:06;;;;;;;19.75;9.00;;;;;;;;;;6036535;23;20935;-87
2022/10/21 05:32:05;;;;;;;21.40;7.85;;;;;;;;;;6017483;23;20039;-87
2022/10/21 05:34:41;;;;;;;29.30;9.73;;;;;;;;;;5987669;23;20039;-87
2022/10/21 05:37:08;;;;;;;29.15;8.13;;;;;;;;;;5975755;23;20028;-86
2022/10/21 05:39:50;;;;;;;21.85;8.82;;;;;;;;;;5952193;23;20036;-87
2022/10/21 05:43:00;;;;;;;25.73;7.87;;;;;;;;;;6015575;23;20069;-86
2022/10/21 05:49:24;;;;;;;29.08;8.00;;;;;;;;;;5948846;24;20086;-87
2022/10/21 05:52:15;;;;;;;25.95;8.07;;;;;;;;;;5895606;24;20511;-87
2022/10/21 06:04:38;;;;;;;26.45;6.97;;;;;;;;;;5814956;24;20023;-87
2022/10/21 06:07:06;;;;;;;22.77;8.88;;;;;;;;;;5791460;24;20020;-87
2022/10/21 06:09:44;;;;;;;37.95;9.50;;;;;;;;;;5791549;24;20011;-87
2022/10/21 06:12:19;;;;;;;20.23;8.02;;;;;;;;;;5792861;24;20023;-88
2022/10/21 06:14:55;;;;;;;77.00;9.75;;;;;;;;;;5789086;24;20031;-87
2022/10/21 06:17:26;;;;;;;30.00;7.95;;;;;;;;;;5784696;24;20038;-87
2022/10/21 06:20:01;;;;;;;16.58;7.10;;;;;;;;;;5788709;24;20809;-86
2022/10/21 06:22:37;;;;;;;32.90;8.52;;;;;;;;;;5821321;24;20011;-86
2022/10/21 06:25:20;;;;;;;34.15;7.93;;;;;;;;;;5873604;24;20030;-86
2022/10/21 06:27:57;;;;;;;33.10;7.80;;;;;;;;;;5947514;24;20112;-87
2022/10/21 06:30:24;;;;;;;39.65;7.93;;;;;;;;;;5947395;24;20409;-87
2022/10/21 06:32:51;;;;;;;31.35;7.50;;;;;;;;;;5947962;24;20037;-87
2022/10/21 06:35:24;;;;;;;43.72;9.05;;;;;;;;;;5950331;24;20093;-87
2022/10/21 06:37:53;;;;;;;36.17;7.70;;;;;;;;;;5947996;24;20033;-87
2022/10/21 06:40:25;;;;;;;36.58;7.55;;;;;;;;;;5975081;23;20652;-87
2022/10/21 06:43:01;;;;;;;26.90;7.22;;;;;;;;;;6094629;23;20051;-87
2022/10/21 06:45:38;;;;;;;22.50;7.68;;;;;;;;;;6094110;23;20113;-87
2022/10/21 06:48:39;;;;;;;36.05;7.22;;;;;;;;;;6092687;23;20328;-87
2022/10/21 06:51:24;;;;;;;33.95;7.10;;;;;;;;;;6083643;23;20027;-86
2022/10/21 06:54:04;;;;;;;19.33;6.63;;;;;;;;;;6093083;23;20051;-87
2022/10/21 06:56:48;;;;;;;37.75;7.22;;;;;;;;;;6085767;23;20106;-87
2022/10/21 06:59:24;;;;;;;21.42;7.13;;;;;;;;;;6087675;23;20027;-87
2022/10/21 07:02:02;;;;;;;24.90;6.88;;;;;;;;;;6089584;23;20030;-86
2022/10/21 07:04:43;;;;;;;25.95;7.20;;;;;;;;;;6089096;23;20027;-87
2022/10/21 07:07:15;;;;;;;21.63;7.10;;;;;;;;;;6092252;23;20027;-87
2022/10/21 07:09:49;;;;;;;39.78;8.05;;;;;;;;;;6091885;23;20031;-86
2022/10/21 07:12:20;;;;;;;23.15;6.80;;;;;;;;;;6088246;23;20144;-86
2022/10/21 07:14:54;;;;;;;14.63;6.30;;;;;;;;;;6090654;23;20027;-86
2022/10/21 07:17:27;;;;;;;19.27;7.55;;;;;;;;;;6092343;23;20034;-88
2022/10/21 07:20:05;;;;;;;23.23;7.18;;;;;;;;;;6093856;23;20030;-88
2022/10/21 07:22:44;;;;;;;23.75;7.88;;;;;;;;;;6094766;23;20378;-87
2022/10/21 07:25:24;;;;;;;19.98;6.47;;;;;;;;;;6095848;23;20060;-86
2022/10/21 07:28:02;;;;;;;18.42;7.53;;;;;;;;;;6094701;23;20051;-87
2022/10/21 07:30:40;;;;;;;15.30;7.75;;;;;;;;;;6096508;23;20364;-87
2022/10/21 07:33:09;;;;;;;20.35;7.53;;;;;;;;;;6094661;23;20788;-87
2022/10/21 07:35:50;;;;;;;21.25;7.20;;;;;;;;;;6092318;23;20047;-86
2022/10/21 07:38:26;;;;;;;26.08;7.53;;;;;;;;;;6090770;23;20106;-86
2022/10/21 07:40:53;;;;;;;23.15;8.25;;;;;;;;;;6097004;23;20037;-86
2022/10/21 07:43:25;;;;;;;25.55;7.95;;;;;;;;;;6093951;23;20027;-86
2022/10/21 07:49:01;;;;;;;23.02;7.55;;;;;;;;;;6089614;23;20029;-86
2022/10/21 07:54:42;;;;;;;26.58;7.85;;;;;;;;;;6005246;23;19923;-86
2022/10/21 07:57:40;;;;;;;20.92;7.57;;;;;;;;;;6034878;23;20019;-87
2022/10/21 08:00:13;;;;;;;27.23;7.78;;;;;;;;;;6044859;23;20027;-86
2022/10/21 08:03:07;;;;;;;20.45;8.35;;;;;;;;;;6091776;23;20015;-86
2022/10/21 08:06:05;;;;;;;22.67;8.48;;;;;;;;;;6094056;23;20023;-87
2022/10/21 08:09:08;;;;;;;19.60;7.82;;;;;;;;;;6088224;23;20059;-86
2022/10/21 08:11:56;;;;;;;25.40;8.77;;;;;;;;;;6095610;23;20027;-86
2022/10/21 08:14:41;;;;;;;28.42;7.88;;;;;;;;;;6066267;23;20055;-86
2022/10/21 08:17:20;;;;;;;33.80;8.93;;;;;;;;;;6094289;23;20023;-86
2022/10/21 08:20:21;;;;;;;20.63;7.43;;;;;;;;;;6094639;23;20525;-86
2022/10/21 08:22:56;;;;;;;18.60;8.00;;;;;;;;;;6091407;23;20770;-86
2022/10/21 08:25:39;;;;;;;33.72;8.07;;;;;;;;;;6094525;23;20396;-86
2022/10/21 08:28:28;;;;;;;26.15;9.25;;;;;;;;;;6093079;23;20022;-86
2022/10/21 08:31:11;;;;;;;19.33;8.02;;;;;;;;;;6092901;23;20051;-86
2022/10/21 08:37:18;;;;;;;22.95;7.90;;;;;;;;;;6059715;23;20023;-86
2022/10/21 08:40:12;;;;;;;16.70;7.88;;;;;;;;;;6038787;23;20134;-86
2022/10/21 08:42:44;;;;;;;17.85;7.85;;;;;;;;;;6062469;23;20122;-87
2022/10/21 08:45:19;;;;;;;17.65;8.43;;;;;;;;;;6042553;23;20171;-86
2022/10/21 08:47:58;;;;;;;19.52;8.25;;;;;;;;;;6038739;23;20026;-85
2022/10/21 08:50:28;;;;;;;17.52;8.25;;;;;;;;;;6062519;23;20356;-86
2022/10/21 08:53:23;;;;;;;23.00;8.55;;;;;;;;;;6062597;23;20027;-87
2022/10/21 08:56:00;;;;;;;16.55;8.43;;;;;;;;;;6052602;23;20054;-86
2022/10/21 08:58:51;;;;;;;20.98;8.55;;;;;;;;;;6037715;23;20411;-86
2022/10/21 09:01:35;;;;;;;19.25;8.13;;;;;;;;;;6064167;23;20029;-87
2022/10/21 09:04:24;;;;;;;15.43;7.97;;;;;;;;;;6063839;23;20885;-86
2022/10/21 09:07:25;;;;;;;18.17;8.43;;;;;;;;;;5976706;23;20029;-87
2022/10/21 09:10:23;;;;;;;27.52;8.48;;;;;;;;;;5897188;24;20024;-87
2022/10/21 09:13:14;;;;;;;31.27;8.40;;;;;;;;;;5899317;24;20014;-86
2022/10/21 09:15:59;;;;;;;18.90;7.90;;;;;;;;;;5892245;24;20034;-86
2022/10/21 09:19:19;;;;;;;18.35;7.72;;;;;;;;;;5885665;24;20034;-87
2022/10/21 09:21:59;;;;;;;22.48;7.13;;;;;;;;;;5895269;24;20038;-86
2022/10/21 09:25:14;;;;;;;15.20;7.50;;;;;;;;;;5897752;24;20026;-86
2022/10/21 09:27:51;;;;;;;15.50;7.28;;;;;;;;;;5896202;24;20074;-86
2022/10/21 09:30:21;;;;;;;14.23;7.55;;;;;;;;;;5852442;24;20017;-86
2022/10/21 09:33:08;;;;;;;16.95;7.32;;;;;;;;;;5876123;24;20727;-86
2022/10/21 09:35:53;;;;;;;16.42;7.20;;;;;;;;;;5899595;24;20033;-86
2022/10/21 09:38:46;;;;;;;14.13;7.00;;;;;;;;;;5896053;24;20025;-86
2022/10/21 09:41:28;;;;;;;16.58;6.93;;;;;;;;;;5920325;24;20021;-87
2022/10/21 09:43:55;;;;;;;31.80;7.70;;;;;;;;;;5897463;24;20045;-87
2022/10/21 09:46:25;;;;;;;20.20;6.78;;;;;;;;;;6013832;23;20138;-87
2022/10/21 09:48:58;;;;;;;19.43;7.07;;;;;;;;;;6008517;23;20024;-86
2022/10/21 09:51:55;;;;;;;17.30;6.80;;;;;;;;;;6032273;23;20031;-86
2022/10/21 09:54:51;;;;;;;10.45;5.82;;;;;;;;;;6013305;23;20032;-86
2022/10/21 09:57:47;;;;;;;9.80;5.93;;;;;;;;;;6033550;23;20062;-86
2022/10/21 10:00:24;;;;;;;;;;;;;;;;;;;;;
2022/10/21 10:03:11;;;;;;;11.70;6.22;;;;;;;;;;6033511;23;20024;-86
2022/10/21 10:05:47;;;;;;;11.88;6.28;;;;;;;;;;6087415;23;20031;-86
2022/10/21 10:08:46;;;;;;;14.40;5.97;;;;;;;;;;6095329;23;20092;-86
2022/10/21 10:11:26;;;;;;;18.73;6.18;;;;;;;;;;6098499;23;20018;-86
2022/10/21 10:14:54;;;;;;;;;;;;;;;;;;;;;
2022/10/21 10:17:28;;;;;;;14.25;6.10;;;;;;;;;;6066329;23;20023;-86
2022/10/21 10:20:04;;;;;;;15.55;5.97;;;;;;;;;;6064938;23;20028;-86
2022/10/21 10:22:57;;;;;;;11.32;5.47;;;;;;;;;;6113501;23;20027;-86
2022/10/21 10:28:38;;;;;;;10.30;5.32;;;;;;;;;;6094978;23;20348;-86
2022/10/21 10:31:52;;;;;;;16.58;5.78;;;;;;;;;;6091328;23;20773;-86
2022/10/21 10:34:31;;;;;;;14.90;5.28;;;;;;;;;;6033778;23;20032;-86
2022/10/21 10:37:16;;;;;;;10.63;5.30;;;;;;;;;;6032829;23;20088;-86
2022/10/21 10:39:48;;;;;;;17.48;5.38;;;;;;;;;;6031600;23;20059;-86
2022/10/21 10:43:07;;;;;;;12.18;5.88;;;;;;;;;;6020103;23;20199;-86
2022/10/21 10:45:46;;;;;;;18.00;4.97;;;;;;;;;;5946901;24;20040;-86
2022/10/21 10:48:46;;;;;;;15.13;5.60;;;;;;;;;;5946556;24;20064;-86
2022/10/21 10:51:31;;;;;;;11.38;5.22;;;;;;;;;;5950123;24;20108;-86
2022/10/21 10:54:25;;;;;;;11.50;5.10;;;;;;;;;;5946003;24;20112;-86
2022/10/21 10:56:58;;;;;;;10.27;5.35;;;;;;;;;;5946759;24;20029;-86
2022/10/21 10:59:39;;;;;;;11.95;4.50;;;;;;;;;;5947335;24;20040;-86
2022/10/21 11:02:09;;;;;;;7.90;4.72;;;;;;;;;;5948343;24;20440;-87
2022/10/21 11:05:03;;;;;;;9.43;4.18;;;;;;;;;;5945525;24;20033;-86
2022/10/21 11:07:33;;;;;;;10.55;4.40;;;;;;;;;;5947361;24;20029;-86
2022/10/21 11:10:06;;;;;;;10.20;4.30;;;;;;;;;;5947896;24;20188;-86
2022/10/21 11:13:07;;;;;;;11.25;4.18;;;;;;;;;;5974706;23;20037;-86
2022/10/21 11:15:55;;;;;;;13.30;4.50;;;;;;;;;;5984171;23;20025;-86
2022/10/21 11:18:53;;;;;;;13.73;3.83;;;;;;;;;;6092693;23;20137;-86
2022/10/21 11:21:48;;;;;;;10.90;3.70;;;;;;;;;;6080305;23;20126;-86
2022/10/21 11:24:34;;;;;;;9.90;4.13;;;;;;;;;;6093975;23;20037;-86
2022/10/21 11:27:04;;;;;;;10.40;3.85;;;;;;;;;;6093117;23;20098;-86
2022/10/21 11:29:37;;;;;;;9.20;4.28;;;;;;;;;;6094158;23;20110;-86
2022/10/21 11:32:08;;;;;;;8.27;4.10;;;;;;;;;;6093021;23;20031;-86
2022/10/21 11:35:04;;;;;;;7.40;3.80;;;;;;;;;;6082478;23;20035;-86
2022/10/21 11:37:53;;;;;;;8.75;3.30;;;;;;;;;;6093407;23;20517;-85
2022/10/21 11:40:28;;;;;;;6.30;3.63;;;;;;;;;;6093229;23;20060;-86
2022/10/21 11:43:40;;;;;;;7.95;3.17;;;;;;;;;;6088130;23;20023;-86
2022/10/21 11:46:14;;;;;;;5.80;2.97;;;;;;;;;;6086905;23;20474;-86
2022/10/21 11:49:08;;;;;;;6.78;2.90;;;;;;;;;;6090655;23;20034;-86
2022/10/21 11:51:51;;;;;;;7.15;2.60;;;;;;;;;;6088324;23;20026;-86
2022/10/21 11:54:52;;;;;;;13.25;2.83;;;;;;;;;;6038568;23;20038;-86
2022/10/21 11:57:56;;;;;;;5.03;2.47;;;;;;;;;;6079860;23;20105;-85
2022/10/21 12:00:43;;;;;;;5.15;2.50;;;;;;;;;;6088549;23;20068;-86
2022/10/21 12:03:30;;;;;;;9.45;2.85;;;;;;;;;;6092650;23;20030;-86
2022/10/21 12:06:16;;;;;;;9.70;3.20;;;;;;;;;;6089670;23;20463;-85
2022/10/21 12:08:53;;;;;;;10.15;3.10;;;;;;;;;;6088717;23;20106;-86
2022/10/21 12:11:59;;;;;;;5.68;2.90;;;;;;;;;;6063404;23;20031;-86
2022/10/21 12:14:45;;;;;;;10.40;2.92;;;;;;;;;;6092233;23;20027;-86
2022/10/21 12:17:16;;;;;;;5.72;3.10;;;;;;;;;;6089105;23;20749;-86
2022/10/21 12:20:22;;;;;;;4.53;2.70;;;;;;;;;;6089140;23;20113;-84
2022/10/21 12:22:54;;;;;;;6.97;3.30;;;;;;;;;;6082244;23;20111;-83
2022/10/21 12:25:49;;;;;;;6.88;3.25;;;;;;;;;;6089707;23;20027;-84
2022/10/21 12:28:53;;;;;;;6.53;3.40;;;;;;;;;;6028576;23;20027;-83
2022/10/21 12:34:30;;;;;;;10.98;3.67;;;;;;;;;;6025284;23;20474;-84
2022/10/21 12:36:57;;;;;;;11.02;3.88;;;;;;;;;;6027846;23;20183;-84
2022/10/21 12:39:32;;;;;;;11.07;4.55;;;;;;;;;;6005424;23;20601;-84
2022/10/21 12:42:28;;;;;;;13.25;3.70;;;;;;;;;;6019934;23;20028;-84
2022/10/21 12:50:43;;;;;;;5.35;3.30;;;;;;;;;;6028552;23;20027;-84
2022/10/21 12:53:15;;;;;;;11.90;4.03;;;;;;;;;;6033481;23;20028;-86
2022/10/21 12:55:57;;;;;;;6.55;3.15;;;;;;;;;;6029750;23;20359;-84
2022/10/21 12:58:45;;;;;;;11.35;3.30;;;;;;;;;;6032985;23;20103;-84
2022/10/21 13:01:41;;;;;;;8.88;3.10;;;;;;;;;;6033830;23;20089;-85
2022/10/21 13:04:30;;;;;;;8.88;2.90;;;;;;;;;;6037973;23;20024;-84
2022/10/21 13:07:18;;;;;;;5.47;2.15;;;;;;;;;;6094869;23;20034;-84
2022/10/21 13:10:08;;;;;;;9.23;1.98;;;;;;;;;;6096431;23;20029;-84
2022/10/21 13:12:38;;;;;;;5.25;2.67;;;;;;;;;;6099448;23;20924;-86
2022/10/21 13:15:26;;;;;;;9.90;2.90;;;;;;;;;;6085953;23;20108;-85
2022/10/21 13:17:59;;;;;;;8.98;2.70;;;;;;;;;;6106029;23;20027;-84
2022/10/21 13:20:26;;;;;;;4.68;2.22;;;;;;;;;;6101241;23;20303;-84
2022/10/21 13:23:12;;;;;;;7.10;2.67;;;;;;;;;;6096302;23;20026;-86
2022/10/21 13:26:05;;;;;;;4.88;2.42;;;;;;;;;;6096766;23;20082;-85
2022/10/21 13:28:47;;;;;;;;;;;;;;;;;;6027069;23;20047;-85
2022/10/21 13:31:25;;;;;;;6.70;2.40;;;;;;;;;;6091270;23;42800;-84
2022/10/21 13:34:02;;;;;;;8.63;2.45;;;;;;;;;;6095339;23;20027;-84
2022/10/21 13:36:52;;;;;;;5.13;2.30;;;;;;;;;;6095785;23;20122;-84
2022/10/21 13:39:56;;;;;;;8.48;2.67;;;;;;;;;;6094899;23;20050;-84
2022/10/21 13:43:04;;;;;;;4.25;2.40;;;;;;;;;;6094947;23;20094;-85
2022/10/21 13:45:46;;;;;;;7.28;2.45;;;;;;;;;;6032981;23;20039;-84
2022/10/21 13:48:24;;;;;;;3.60;2.13;;;;;;;;;;6031431;23;21541;-84
2022/10/21 13:51:14;;;;;;;4.47;2.33;;;;;;;;;;6030005;23;20024;-85
2022/10/21 13:53:44;;;;;;;8.23;2.42;;;;;;;;;;6030677;23;20024;-85
2022/10/21 13:56:29;;;;;;;5.85;2.47;;;;;;;;;;6023024;23;20464;-85
2022/10/21 13:59:32;;;;;;;6.13;2.10;;;;;;;;;;6019150;23;20088;-84
2022/10/21 14:02:02;;;;;;;7.28;2.13;;;;;;;;;;6032079;23;20027;-84
2022/10/21 14:04:52;;;;;;;4.25;2.20;;;;;;;;;;6009186;23;20394;-84
2022/10/21 14:07:29;;;;;;;5.60;2.83;;;;;;;;;;6028091;23;20112;-84
2022/10/21 14:10:36;;;;;;;4.25;1.90;;;;;;;;;;6004334;23;20032;-85
2022/10/21 14:13:54;;;;;;;10.98;2.33;;;;;;;;;;5959348;23;20028;-85
2022/10/21 14:16:47;;;;;;;6.10;2.20;;;;;;;;;;5945685;24;20422;-86
2022/10/21 14:19:36;;;;;;;6.72;1.88;;;;;;;;;;5956952;23;20028;-87
2022/10/21 14:22:03;;;;;;;5.50;2.58;;;;;;;;;;5976070;23;20806;-86
2022/10/21 14:24:49;;;;;;;5.35;2.42;;;;;;;;;;5975481;23;20658;-86
2022/10/21 14:27:31;;;;;;;8.13;2.38;;;;;;;;;;5950923;23;20495;-86
2022/10/21 14:30:00;;;;;;;5.18;2.35;;;;;;;;;;5972072;23;20386;-86
2022/10/21 14:32:43;;;;;;;8.95;2.50;;;;;;;;;;5975830;23;20032;-86
2022/10/21 14:35:11;;;;;;;9.88;3.83;;;;;;;;;;5973873;23;20028;-86
2022/10/21 14:37:56;;;;;;;7.40;4.20;;;;;;;;;;5973884;23;20057;-85
2022/10/21 14:40:34;;;;;;;11.73;3.90;;;;;;;;;;5974065;23;20036;-85
2022/10/21 14:43:48;;;;;;;6.95;2.65;;;;;;;;;;5954210;23;20025;-86
2022/10/21 14:46:16;;;;;;;4.32;2.17;;;;;;;;;;5951396;23;20469;-86
2022/10/21 14:49:25;;;;;;;5.20;2.30;;;;;;;;;;5970911;23;20086;-85
2022/10/21 14:52:08;;;;;;;5.72;3.03;;;;;;;;;;5995237;23;20384;-85
2022/10/21 14:54:48;;;;;;;3.10;2.10;;;;;;;;;;6091173;23;20026;-86
2022/10/21 14:57:59;;;;;;;3.42;2.20;;;;;;;;;;6092509;23;20026;-88
2022/10/21 15:00:50;;;;;;;4.72;2.45;;;;;;;;;;6091863;23;20098;-87
2022/10/21 15:03:41;;;;;;;7.18;2.65;;;;;;;;;;6087340;23;20121;-88
2022/10/21 15:06:18;;;;;;;7.25;2.42;;;;;;;;;;6091329;23;20106;-86
2022/10/21 15:09:08;;;;;;;4.18;2.35;;;;;;;;;;6092657;23;20027;-86
2022/10/21 15:12:20;;;;;;;9.88;2.47;;;;;;;;;;6091735;23;20022;-86
2022/10/21 15:15:00;;;;;;;3.45;1.88;;;;;;;;;;6089114;23;20062;-86
2022/10/21 15:17:30;;;;;;;3.28;1.70;;;;;;;;;;6089447;23;20848;-86
2022/10/21 15:20:27;;;;;;;4.40;1.73;;;;;;;;;;6092470;23;20023;-86
2022/10/21 15:23:29;;;;;;;5.97;1.90;;;;;;;;;;6088960;23;20114;-86
2022/10/21 15:25:59;;;;;;;4.43;1.77;;;;;;;;;;6091781;23;20442;-86
2022/10/21 15:28:37;;;;;;;3.13;1.67;;;;;;;;;;6088756;23;20302;-86
2022/10/21 15:31:21;;;;;;;7.60;1.85;;;;;;;;;;6091105;23;20027;-86
2022/10/21 15:33:55;;;;;;;4.30;1.95;;;;;;;;;;6071295;23;20173;-86
2022/10/21 15:36:23;;;;;;;7.28;1.88;;;;;;;;;;6090181;23;20026;-86
2022/10/21 15:38:55;;;;;;;;;;;;;;;;;;6040969;23;20791;-86
2022/10/21 15:41:28;;;;;;;3.03;1.45;;;;;;;;;;6087963;23;44421;-87
2022/10/21 15:44:27;;;;;;;3.45;1.67;;;;;;;;;;6081160;23;20098;-87
2022/10/21 15:47:07;;;;;;;4.72;1.70;;;;;;;;;;6087099;23;20035;-86
2022/10/21 15:49:56;;;;;;;8.90;1.50;;;;;;;;;;6088623;23;20037;-87
2022/10/21 15:52:36;;;;;;;4.07;1.80;;;;;;;;;;6090499;23;20019;-87
2022/10/21 15:55:27;;;;;;;2.58;1.45;;;;;;;;;;6073914;23;20022;-87
2022/10/21 15:57:57;;;;;;;4.72;1.83;;;;;;;;;;6085539;23;21012;-87
2022/10/21 16:00:24;;;;;;;3.15;1.40;;;;;;;;;;6086898;23;20031;-86
2022/10/21 16:02:51;;;;;;;5.90;1.77;;;;;;;;;;6092625;23;20062;-85
2022/10/21 16:05:24;;;;;;;2.15;1.40;;;;;;;;;;6089535;23;20077;-85
2022/10/21 16:07:53;;;;;;;5.22;1.83;;;;;;;;;;6088369;23;20758;-84
2022/10/21 16:10:46;;;;;;;6.72;2.08;;;;;;;;;;6088233;23;20728;-85
2022/10/21 16:13:19;;;;;;;4.63;1.67;;;;;;;;;;6095800;23;20132;-86
2022/10/21 16:16:07;;;;;;;2.33;1.60;;;;;;;;;;6098402;23;20031;-84
2022/10/21 16:18:44;;;;;;;;;;;;;;;;;;;;;
2022/10/21 16:21:49;;;;;;;5.55;1.98;;;;;;;;;;6078376;23;20854;-86
2022/10/21 16:24:19;;;;;;;6.88;1.60;;;;;;;;;;6090512;23;20451;-85
2022/10/21 16:26:48;;;;;;;3.63;1.77;;;;;;;;;;6106110;23;20057;-85
2022/10/21 16:29:37;;;;;;;8.50;2.10;;;;;;;;;;6122361;23;20038;-86
2022/10/21 16:32:19;;;;;;;3.63;1.90;;;;;;;;;;6086041;23;20739;-85
2022/10/21 16:35:19;;;;;;;4.90;1.90;;;;;;;;;;6090036;23;20889;-85
2022/10/21 16:38:04;;;;;;;5.22;1.83;;;;;;;;;;6002890;23;20397;-85
2022/10/21 16:41:15;;;;;;;12.63;2.03;;;;;;;;;;6088673;23;20022;-85
2022/10/21 16:43:51;;;;;;;7.43;1.85;;;;;;;;;;6093146;23;20027;-85
2022/10/21 16:46:32;;;;;;;5.95;1.83;;;;;;;;;;6087680;23;20733;-84
2022/10/21 16:49:00;;;;;;;4.95;1.98;;;;;;;;;;6087990;23;20122;-84
2022/10/21 16:51:45;;;;;;;8.10;2.03;;;;;;;;;;6088935;23;20132;-85